N276LB SPZO-SPGM
Flight info
| Callsign | N276LB |
|---|---|
| Flight time | 1h 29m |
| Altitude | 20000 |
| Route | MLV T242 LIVAT DCT DALGI DCT LUVSO |
| Aircraft | TBM8/L-SDFGRWY/S |
Departure
| Time | 2026-05-06 18:35 |
|---|---|
| Airport | Alejandro Velasco Astete International Airport (SPZO) |
Arrival
| Time | 2026-05-06 20:05 |
|---|---|
| Airport | Tingo Maria Airport (SPGM) |
| Time | Latitude | Longitude | Altitude | Speed | Heading |
|---|---|---|---|---|---|
| 2026-05-06 18:14 | -13.53693 | -71.94517 | 10811 ft | 0 kts | 274° |
| 2026-05-06 18:24 | -13.53693 | -71.94519 | 10811 ft | 2 kts | 267° |
| 2026-05-06 18:24 | -13.53707 | -71.94522 | 10811 ft | 0 kts | 120° |
| 2026-05-06 18:24 | -13.53707 | -71.94515 | 10811 ft | 2 kts | 60° |
| 2026-05-06 18:25 | -13.53690 | -71.94507 | 10811 ft | 2 kts | 54° |
| 2026-05-06 18:25 | -13.53691 | -71.94486 | 10811 ft | 5 kts | 92° |
| 2026-05-06 18:25 | -13.53671 | -71.94465 | 10811 ft | 3 kts | 351° |
| 2026-05-06 18:25 | -13.53649 | -71.94491 | 10811 ft | 7 kts | 288° |
| 2026-05-06 18:26 | -13.53638 | -71.94575 | 10813 ft | 14 kts | 276° |
| 2026-05-06 18:26 | -13.53627 | -71.94692 | 10821 ft | 18 kts | 276° |
| 2026-05-06 18:26 | -13.53615 | -71.94802 | 10828 ft | 14 kts | 276° |
| 2026-05-06 18:26 | -13.53606 | -71.94897 | 10834 ft | 14 kts | 276° |
| 2026-05-06 18:27 | -13.53595 | -71.95006 | 10846 ft | 18 kts | 275° |
| 2026-05-06 18:27 | -13.53583 | -71.95131 | 10854 ft | 17 kts | 276° |
| 2026-05-06 18:27 | -13.53569 | -71.95264 | 10861 ft | 20 kts | 275° |
| 2026-05-06 18:27 | -13.53556 | -71.95390 | 10861 ft | 13 kts | 279° |
| 2026-05-06 18:28 | -13.53505 | -71.95436 | 10860 ft | 12 kts | 12° |
| 2026-05-06 18:28 | -13.53489 | -71.95431 | 10858 ft | 0 kts | 8° |
| 2026-05-06 18:33 | -13.53468 | -71.95428 | 10841 ft | 10 kts | 8° |
| 2026-05-06 18:33 | -13.53423 | -71.95372 | 10861 ft | 13 kts | 103° |
| 2026-05-06 18:34 | -13.53440 | -71.95197 | 10857 ft | 39 kts | 95° |
| 2026-05-06 18:34 | -13.53480 | -71.94799 | 10829 ft | 73 kts | 96° |
| 2026-05-06 18:34 | -13.53544 | -71.94163 | 10808 ft | 104 kts | 95° |
| 2026-05-06 18:34 | -13.53627 | -71.93329 | 10811 ft | 127 kts | 96° |
| 2026-05-06 18:35 | -13.53751 | -71.92417 | 11020 ft | 131 kts | 100° |
| 2026-05-06 18:35 | -13.53885 | -71.91465 | 11289 ft | 138 kts | 102° |
| 2026-05-06 18:35 | -13.54053 | -71.90459 | 11443 ft | 152 kts | 101° |
| 2026-05-06 18:35 | -13.54204 | -71.89347 | 11685 ft | 160 kts | 104° |
| 2026-05-06 18:36 | -13.54536 | -71.88236 | 11934 ft | 168 kts | 113° |
| 2026-05-06 18:36 | -13.55002 | -71.87072 | 12036 ft | 182 kts | 115° |
| 2026-05-06 18:36 | -13.55533 | -71.85891 | 12375 ft | 184 kts | 114° |
| 2026-05-06 18:36 | -13.56013 | -71.84587 | 12317 ft | 208 kts | 114° |
| 2026-05-06 18:37 | -13.56564 | -71.83180 | 12698 ft | 212 kts | 118° |
| 2026-05-06 18:37 | -13.57375 | -71.81927 | 13212 ft | 212 kts | 127° |
| 2026-05-06 18:37 | -13.58280 | -71.80742 | 13582 ft | 214 kts | 130° |
| 2026-05-06 18:37 | -13.59238 | -71.79575 | 13768 ft | 215 kts | 132° |
| 2026-05-06 18:38 | -13.60114 | -71.78324 | 13891 ft | 217 kts | 115° |
| 2026-05-06 18:38 | -13.60524 | -71.76845 | 14126 ft | 213 kts | 103° |
| 2026-05-06 18:38 | -13.60614 | -71.75321 | 14323 ft | 215 kts | 86° |
| 2026-05-06 18:38 | -13.60157 | -71.73870 | 14492 ft | 215 kts | 62° |
| 2026-05-06 18:39 | -13.59195 | -71.72716 | 14638 ft | 215 kts | 44° |
| 2026-05-06 18:39 | -13.57930 | -71.71928 | 14798 ft | 211 kts | 22° |
| 2026-05-06 18:39 | -13.56509 | -71.71614 | 15051 ft | 209 kts | 7° |
| 2026-05-06 18:40 | -13.53674 | -71.72247 | 15436 ft | 212 kts | 331° |
| 2026-05-06 18:40 | -13.52574 | -71.73251 | 15674 ft | 212 kts | 315° |
| 2026-05-06 18:40 | -13.51652 | -71.74443 | 15887 ft | 214 kts | 315° |
| 2026-05-06 18:40 | -13.50826 | -71.75683 | 16110 ft | 213 kts | 308° |
| 2026-05-06 18:41 | -13.49971 | -71.76917 | 16313 ft | 212 kts | 307° |
| 2026-05-06 18:41 | -13.49142 | -71.78158 | 16615 ft | 211 kts | 304° |
| 2026-05-06 18:41 | -13.48320 | -71.79431 | 16835 ft | 215 kts | 307° |
| 2026-05-06 18:41 | -13.47376 | -71.80621 | 17133 ft | 214 kts | 310° |
| 2026-05-06 18:42 | -13.46390 | -71.81778 | 17382 ft | 216 kts | 310° |
| 2026-05-06 18:42 | -13.45420 | -71.82957 | 17650 ft | 216 kts | 314° |
| 2026-05-06 18:42 | -13.44238 | -71.83929 | 17846 ft | 220 kts | 324° |
| 2026-05-06 18:42 | -13.42969 | -71.84799 | 18140 ft | 218 kts | 327° |
| 2026-05-06 18:43 | -13.41681 | -71.85648 | 18361 ft | 220 kts | 325° |
| 2026-05-06 18:43 | -13.40427 | -71.86558 | 18575 ft | 223 kts | 322° |
| 2026-05-06 18:43 | -13.39154 | -71.87480 | 18791 ft | 225 kts | 324° |
| 2026-05-06 18:43 | -13.37858 | -71.88377 | 18999 ft | 225 kts | 327° |
| 2026-05-06 18:44 | -13.36557 | -71.89251 | 19266 ft | 222 kts | 325° |
| 2026-05-06 18:44 | -13.35293 | -71.90153 | 19231 ft | 222 kts | 326° |
| 2026-05-06 18:44 | -13.33989 | -71.91035 | 19407 ft | 226 kts | 326° |
| 2026-05-06 18:44 | -13.32692 | -71.91955 | 19528 ft | 231 kts | 324° |
| 2026-05-06 18:45 | -13.31364 | -71.92919 | 19598 ft | 237 kts | 325° |
| 2026-05-06 18:45 | -13.29984 | -71.93924 | 19594 ft | 247 kts | 323° |
| 2026-05-06 18:45 | -13.28618 | -71.95031 | 19609 ft | 254 kts | 323° |
| 2026-05-06 18:45 | -13.27231 | -71.96176 | 19623 ft | 260 kts | 323° |
| 2026-05-06 18:46 | -13.25644 | -71.97072 | 19612 ft | 267 kts | 336° |
| 2026-05-06 18:46 | -13.23978 | -71.97924 | 19600 ft | 267 kts | 329° |
| 2026-05-06 18:46 | -13.22451 | -71.98993 | 19598 ft | 265 kts | 323° |
| 2026-05-06 18:46 | -13.20961 | -72.00136 | 19593 ft | 269 kts | 324° |
| 2026-05-06 18:47 | -13.19417 | -72.01224 | 19593 ft | 271 kts | 325° |
| 2026-05-06 18:47 | -13.17831 | -72.02299 | 19590 ft | 274 kts | 325° |
| 2026-05-06 18:47 | -13.16249 | -72.03399 | 19593 ft | 276 kts | 324° |
| 2026-05-06 18:47 | -13.14660 | -72.04516 | 19593 ft | 277 kts | 324° |
| 2026-05-06 18:48 | -13.13064 | -72.05631 | 19618 ft | 277 kts | 324° |
| 2026-05-06 18:48 | -13.11480 | -72.06738 | 19732 ft | 274 kts | 324° |
| 2026-05-06 18:48 | -13.09910 | -72.07828 | 19846 ft | 272 kts | 325° |
| 2026-05-06 18:48 | -13.08349 | -72.08913 | 19959 ft | 270 kts | 324° |
| 2026-05-06 18:49 | -13.06822 | -72.09979 | 20070 ft | 269 kts | 324° |
| 2026-05-06 18:49 | -13.05276 | -72.11058 | 20142 ft | 270 kts | 325° |
| 2026-05-06 18:49 | -13.03711 | -72.12146 | 20136 ft | 273 kts | 325° |
| 2026-05-06 18:49 | -13.02136 | -72.13243 | 20139 ft | 276 kts | 325° |
| 2026-05-06 18:50 | -13.00544 | -72.14352 | 20140 ft | 278 kts | 324° |
| 2026-05-06 18:50 | -12.98940 | -72.15464 | 20141 ft | 278 kts | 325° |
| 2026-05-06 18:50 | -12.97335 | -72.16582 | 20144 ft | 279 kts | 324° |
| 2026-05-06 18:50 | -12.95728 | -72.17706 | 20144 ft | 280 kts | 324° |
| 2026-05-06 18:51 | -12.94124 | -72.18833 | 20144 ft | 279 kts | 324° |
| 2026-05-06 18:51 | -12.92513 | -72.19951 | 20145 ft | 279 kts | 325° |
| 2026-05-06 18:51 | -12.90893 | -72.21053 | 20145 ft | 280 kts | 325° |
| 2026-05-06 18:51 | -12.89283 | -72.22174 | 20145 ft | 280 kts | 324° |
| 2026-05-06 18:52 | -12.87674 | -72.23303 | 20144 ft | 280 kts | 325° |
| 2026-05-06 18:52 | -12.86062 | -72.24429 | 20125 ft | 281 kts | 326° |
| 2026-05-06 18:52 | -12.84446 | -72.25554 | 20106 ft | 281 kts | 326° |
| 2026-05-06 18:52 | -12.82826 | -72.26678 | 20106 ft | 281 kts | 326° |
| 2026-05-06 18:53 | -12.81231 | -72.27784 | 20103 ft | 280 kts | 326° |
| 2026-05-06 18:53 | -12.79619 | -72.28906 | 20103 ft | 280 kts | 326° |
| 2026-05-06 18:53 | -12.78007 | -72.30024 | 20104 ft | 280 kts | 326° |
| 2026-05-06 18:53 | -12.76394 | -72.31145 | 20104 ft | 280 kts | 326° |
| 2026-05-06 18:54 | -12.74786 | -72.32262 | 20104 ft | 280 kts | 326° |
| 2026-05-06 18:54 | -12.73172 | -72.33384 | 20082 ft | 280 kts | 326° |
| 2026-05-06 18:54 | -12.71559 | -72.34502 | 20082 ft | 280 kts | 326° |
| 2026-05-06 18:54 | -12.69950 | -72.35621 | 20082 ft | 280 kts | 326° |
| 2026-05-06 18:55 | -12.68338 | -72.36740 | 20084 ft | 280 kts | 326° |
| 2026-05-06 18:55 | -12.66721 | -72.37865 | 20084 ft | 281 kts | 326° |
| 2026-05-06 18:55 | -12.65100 | -72.38987 | 20084 ft | 282 kts | 326° |
| 2026-05-06 18:55 | -12.63471 | -72.40115 | 20062 ft | 283 kts | 326° |
| 2026-05-06 18:56 | -12.61842 | -72.41246 | 20061 ft | 283 kts | 326° |
| 2026-05-06 18:56 | -12.60211 | -72.42378 | 20047 ft | 283 kts | 326° |
| 2026-05-06 18:56 | -12.58579 | -72.43509 | 20048 ft | 284 kts | 326° |
| 2026-05-06 18:56 | -12.56945 | -72.44644 | 20047 ft | 284 kts | 326° |
| 2026-05-06 18:57 | -12.55309 | -72.45776 | 20046 ft | 284 kts | 326° |
| 2026-05-06 18:57 | -12.53675 | -72.46909 | 20047 ft | 284 kts | 326° |
| 2026-05-06 18:57 | -12.52042 | -72.48040 | 20046 ft | 284 kts | 326° |
| 2026-05-06 18:57 | -12.50408 | -72.49174 | 20046 ft | 283 kts | 326° |
| 2026-05-06 18:58 | -12.48777 | -72.50303 | 20045 ft | 283 kts | 326° |
| 2026-05-06 18:58 | -12.47145 | -72.51433 | 20040 ft | 283 kts | 326° |
| 2026-05-06 18:58 | -12.45512 | -72.52565 | 20040 ft | 283 kts | 326° |
| 2026-05-06 18:58 | -12.43882 | -72.53695 | 20016 ft | 283 kts | 326° |
| 2026-05-06 18:59 | -12.42249 | -72.54824 | 20015 ft | 283 kts | 326° |
| 2026-05-06 18:59 | -12.40637 | -72.55940 | 20015 ft | 284 kts | 326° |
| 2026-05-06 18:59 | -12.38981 | -72.57086 | 20015 ft | 284 kts | 326° |
| 2026-05-06 18:59 | -12.37349 | -72.58217 | 20014 ft | 283 kts | 326° |
| 2026-05-06 19:00 | -12.35735 | -72.59332 | 20011 ft | 283 kts | 326° |
| 2026-05-06 19:00 | -12.34105 | -72.60460 | 20010 ft | 283 kts | 326° |
| 2026-05-06 19:00 | -12.32472 | -72.61591 | 20010 ft | 284 kts | 326° |
| 2026-05-06 19:00 | -12.31368 | -72.62354 | 20010 ft | 284 kts | 326° |
| 2026-05-06 19:01 | -12.29198 | -72.63855 | 20010 ft | 284 kts | 326° |
| 2026-05-06 19:01 | -12.27560 | -72.64988 | 20010 ft | 284 kts | 326° |
| 2026-05-06 19:01 | -12.25921 | -72.66120 | 20009 ft | 284 kts | 326° |
| 2026-05-06 19:01 | -12.24283 | -72.67253 | 19988 ft | 284 kts | 326° |
| 2026-05-06 19:02 | -12.22643 | -72.68386 | 19988 ft | 284 kts | 326° |
| 2026-05-06 19:02 | -12.21006 | -72.69518 | 19982 ft | 284 kts | 326° |
| 2026-05-06 19:02 | -12.19363 | -72.70653 | 19976 ft | 285 kts | 326° |
| 2026-05-06 19:02 | -12.17723 | -72.71785 | 19976 ft | 285 kts | 326° |
| 2026-05-06 19:03 | -12.16082 | -72.72919 | 19973 ft | 285 kts | 326° |
| 2026-05-06 19:03 | -12.14438 | -72.74053 | 19973 ft | 285 kts | 326° |
| 2026-05-06 19:03 | -12.12798 | -72.75188 | 19973 ft | 285 kts | 326° |
| 2026-05-06 19:03 | -12.11158 | -72.76319 | 19973 ft | 285 kts | 326° |
| 2026-05-06 19:04 | -12.09513 | -72.77454 | 19976 ft | 285 kts | 326° |
| 2026-05-06 19:04 | -12.07871 | -72.78588 | 19975 ft | 285 kts | 326° |
| 2026-05-06 19:04 | -12.06228 | -72.79722 | 19957 ft | 285 kts | 326° |
| 2026-05-06 19:04 | -12.04587 | -72.80854 | 19956 ft | 285 kts | 326° |
| 2026-05-06 19:05 | -12.02944 | -72.81988 | 19950 ft | 285 kts | 326° |
| 2026-05-06 19:05 | -12.01323 | -72.83107 | 19950 ft | 285 kts | 326° |
| 2026-05-06 19:05 | -11.99682 | -72.84237 | 19950 ft | 285 kts | 326° |
| 2026-05-06 19:05 | -11.98039 | -72.85371 | 19950 ft | 285 kts | 326° |
| 2026-05-06 19:06 | -11.96397 | -72.86503 | 19948 ft | 285 kts | 326° |
| 2026-05-06 19:06 | -11.94756 | -72.87634 | 19948 ft | 284 kts | 326° |
| 2026-05-06 19:06 | -11.93116 | -72.88765 | 19939 ft | 284 kts | 326° |
| 2026-05-06 19:06 | -11.91475 | -72.89896 | 19939 ft | 284 kts | 326° |
| 2026-05-06 19:07 | -11.89832 | -72.91028 | 19940 ft | 285 kts | 326° |
| 2026-05-06 19:07 | -11.88749 | -72.91774 | 19940 ft | 285 kts | 326° |
| 2026-05-06 19:07 | -11.86551 | -72.93288 | 19940 ft | 285 kts | 326° |
| 2026-05-06 19:07 | -11.84935 | -72.94455 | 19941 ft | 285 kts | 323° |
| 2026-05-06 19:08 | -11.83878 | -72.95249 | 19941 ft | 285 kts | 324° |
| 2026-05-06 19:08 | -11.82266 | -72.96428 | 19941 ft | 285 kts | 324° |
| 2026-05-06 19:08 | -11.80653 | -72.97609 | 19936 ft | 285 kts | 324° |
| 2026-05-06 19:08 | -11.79047 | -72.98798 | 19936 ft | 285 kts | 324° |
| 2026-05-06 19:09 | -11.77440 | -72.99989 | 19934 ft | 285 kts | 324° |
| 2026-05-06 19:09 | -11.75831 | -73.01177 | 19934 ft | 285 kts | 324° |
| 2026-05-06 19:09 | -11.74221 | -73.02367 | 19934 ft | 285 kts | 324° |
| 2026-05-06 19:09 | -11.72613 | -73.03555 | 19934 ft | 285 kts | 324° |
| 2026-05-06 19:10 | -11.71004 | -73.04743 | 19932 ft | 286 kts | 324° |
| 2026-05-06 19:10 | -11.69392 | -73.05933 | 19933 ft | 286 kts | 324° |
| 2026-05-06 19:10 | -11.67783 | -73.07122 | 19932 ft | 286 kts | 324° |
| 2026-05-06 19:10 | -11.66175 | -73.08308 | 19927 ft | 286 kts | 324° |
| 2026-05-06 19:11 | -11.64564 | -73.09498 | 19939 ft | 286 kts | 324° |
| 2026-05-06 19:11 | -11.62977 | -73.10669 | 19939 ft | 286 kts | 324° |
| 2026-05-06 19:11 | -11.61368 | -73.11857 | 19939 ft | 285 kts | 324° |
| 2026-05-06 19:11 | -11.59758 | -73.13044 | 19939 ft | 285 kts | 324° |
| 2026-05-06 19:12 | -11.58148 | -73.14234 | 19935 ft | 286 kts | 324° |
| 2026-05-06 19:12 | -11.56540 | -73.15420 | 19935 ft | 286 kts | 324° |
| 2026-05-06 19:12 | -11.54930 | -73.16606 | 19935 ft | 286 kts | 324° |
| 2026-05-06 19:12 | -11.53320 | -73.17794 | 19931 ft | 286 kts | 324° |
| 2026-05-06 19:13 | -11.51708 | -73.18982 | 19930 ft | 286 kts | 324° |
| 2026-05-06 19:13 | -11.50095 | -73.20171 | 19930 ft | 286 kts | 324° |
| 2026-05-06 19:13 | -11.48482 | -73.21361 | 19930 ft | 286 kts | 324° |
| 2026-05-06 19:13 | -11.46869 | -73.22550 | 19930 ft | 286 kts | 324° |
| 2026-05-06 19:14 | -11.45255 | -73.23740 | 19949 ft | 286 kts | 324° |
| 2026-05-06 19:14 | -11.43640 | -73.24931 | 19949 ft | 287 kts | 324° |
| 2026-05-06 19:14 | -11.42020 | -73.26122 | 19950 ft | 287 kts | 324° |
| 2026-05-06 19:14 | -11.40402 | -73.27315 | 19939 ft | 287 kts | 324° |
| 2026-05-06 19:15 | -11.38779 | -73.28510 | 19937 ft | 288 kts | 324° |
| 2026-05-06 19:15 | -11.37158 | -73.29703 | 19937 ft | 288 kts | 324° |
| 2026-05-06 19:15 | -11.35532 | -73.30900 | 19938 ft | 288 kts | 324° |
| 2026-05-06 19:15 | -11.33904 | -73.32098 | 19938 ft | 289 kts | 324° |
| 2026-05-06 19:16 | -11.32276 | -73.33297 | 19940 ft | 289 kts | 324° |
| 2026-05-06 19:16 | -11.30643 | -73.34498 | 19940 ft | 289 kts | 324° |
| 2026-05-06 19:16 | -11.29033 | -73.35684 | 19939 ft | 289 kts | 324° |
| 2026-05-06 19:16 | -11.27380 | -73.36900 | 19939 ft | 290 kts | 324° |
| 2026-05-06 19:17 | -11.25765 | -73.38089 | 19936 ft | 290 kts | 324° |
| 2026-05-06 19:17 | -11.24131 | -73.39289 | 19937 ft | 289 kts | 324° |
| 2026-05-06 19:17 | -11.22497 | -73.40491 | 19936 ft | 289 kts | 324° |
| 2026-05-06 19:17 | -11.20864 | -73.41692 | 19936 ft | 290 kts | 324° |
| 2026-05-06 19:18 | -11.19230 | -73.42893 | 19936 ft | 290 kts | 324° |
| 2026-05-06 19:18 | -11.17593 | -73.44097 | 19936 ft | 290 kts | 324° |
| 2026-05-06 19:18 | -11.15956 | -73.45300 | 19936 ft | 290 kts | 324° |
| 2026-05-06 19:18 | -11.14322 | -73.46501 | 19936 ft | 290 kts | 324° |
| 2026-05-06 19:19 | -11.12688 | -73.47702 | 19927 ft | 290 kts | 324° |
| 2026-05-06 19:19 | -11.11048 | -73.48907 | 19928 ft | 290 kts | 324° |
| 2026-05-06 19:19 | -11.09433 | -73.50093 | 19928 ft | 290 kts | 324° |
| 2026-05-06 19:19 | -11.07794 | -73.51297 | 19936 ft | 290 kts | 324° |
| 2026-05-06 19:20 | -11.06157 | -73.52499 | 19933 ft | 290 kts | 324° |
| 2026-05-06 19:20 | -11.04522 | -73.53700 | 19933 ft | 290 kts | 324° |
| 2026-05-06 19:20 | -11.02881 | -73.54905 | 19932 ft | 290 kts | 324° |
| 2026-05-06 19:20 | -11.01244 | -73.56106 | 19932 ft | 290 kts | 324° |
| 2026-05-06 19:21 | -10.99606 | -73.57309 | 19932 ft | 290 kts | 324° |
| 2026-05-06 19:21 | -10.97969 | -73.58510 | 19932 ft | 290 kts | 324° |
| 2026-05-06 19:21 | -10.96328 | -73.59715 | 19932 ft | 290 kts | 324° |
| 2026-05-06 19:21 | -10.94689 | -73.60916 | 19932 ft | 290 kts | 324° |
| 2026-05-06 19:22 | -10.93051 | -73.62118 | 19931 ft | 290 kts | 324° |
| 2026-05-06 19:22 | -10.91413 | -73.63320 | 19930 ft | 290 kts | 324° |
| 2026-05-06 19:22 | -10.89774 | -73.64522 | 19931 ft | 291 kts | 324° |
| 2026-05-06 19:22 | -10.88135 | -73.65723 | 19943 ft | 290 kts | 324° |
| 2026-05-06 19:23 | -10.86496 | -73.66925 | 19940 ft | 290 kts | 324° |
| 2026-05-06 19:23 | -10.84854 | -73.68129 | 19940 ft | 290 kts | 324° |
| 2026-05-06 19:23 | -10.83214 | -73.69331 | 19940 ft | 291 kts | 324° |
| 2026-05-06 19:23 | -10.81571 | -73.70534 | 19940 ft | 291 kts | 324° |
| 2026-05-06 19:24 | -10.79931 | -73.71734 | 19940 ft | 290 kts | 324° |
| 2026-05-06 19:24 | -10.78298 | -73.72932 | 19940 ft | 289 kts | 324° |
| 2026-05-06 19:24 | -10.76666 | -73.74130 | 19938 ft | 289 kts | 324° |
| 2026-05-06 19:24 | -10.75036 | -73.75322 | 19938 ft | 288 kts | 324° |
| 2026-05-06 19:25 | -10.73418 | -73.76527 | 19935 ft | 288 kts | 321° |
| 2026-05-06 19:25 | -10.72080 | -73.78032 | 19931 ft | 288 kts | 304° |
| 2026-05-06 19:25 | -10.70995 | -73.79707 | 19953 ft | 287 kts | 303° |
| 2026-05-06 19:25 | -10.69883 | -73.81396 | 19952 ft | 287 kts | 303° |
| 2026-05-06 19:26 | -10.68773 | -73.83077 | 19954 ft | 287 kts | 303° |
| 2026-05-06 19:26 | -10.67657 | -73.84778 | 19951 ft | 287 kts | 303° |
| 2026-05-06 19:26 | -10.66549 | -73.86467 | 19952 ft | 287 kts | 303° |
| 2026-05-06 19:26 | -10.65441 | -73.88156 | 19952 ft | 287 kts | 303° |
| 2026-05-06 19:27 | -10.64333 | -73.89843 | 19950 ft | 287 kts | 303° |
| 2026-05-06 19:27 | -10.63224 | -73.91529 | 19950 ft | 287 kts | 303° |
| 2026-05-06 19:27 | -10.62117 | -73.93215 | 19950 ft | 287 kts | 303° |
| 2026-05-06 19:27 | -10.61009 | -73.94900 | 19966 ft | 286 kts | 303° |
| 2026-05-06 19:28 | -10.59903 | -73.96583 | 19968 ft | 286 kts | 303° |
| 2026-05-06 19:28 | -10.58811 | -73.98245 | 19965 ft | 286 kts | 303° |
| 2026-05-06 19:28 | -10.57704 | -73.99929 | 19965 ft | 286 kts | 303° |
| 2026-05-06 19:28 | -10.56598 | -74.01610 | 19965 ft | 286 kts | 303° |
| 2026-05-06 19:29 | -10.55493 | -74.03291 | 19965 ft | 286 kts | 303° |
| 2026-05-06 19:29 | -10.54387 | -74.04971 | 19965 ft | 286 kts | 303° |
| 2026-05-06 19:29 | -10.53284 | -74.06648 | 19965 ft | 285 kts | 303° |
| 2026-05-06 19:29 | -10.52179 | -74.08328 | 19982 ft | 285 kts | 303° |
| 2026-05-06 19:30 | -10.51075 | -74.10004 | 19979 ft | 286 kts | 303° |
| 2026-05-06 19:30 | -10.49971 | -74.11684 | 19980 ft | 285 kts | 303° |
| 2026-05-06 19:30 | -10.48866 | -74.13361 | 19979 ft | 285 kts | 303° |
| 2026-05-06 19:30 | -10.47774 | -74.15019 | 19979 ft | 285 kts | 303° |
| 2026-05-06 19:31 | -10.46672 | -74.16694 | 19981 ft | 285 kts | 303° |
| 2026-05-06 19:31 | -10.45569 | -74.18369 | 19983 ft | 285 kts | 303° |
| 2026-05-06 19:31 | -10.43363 | -74.21718 | 19999 ft | 285 kts | 303° |
| 2026-05-06 19:32 | -10.42261 | -74.23390 | 20001 ft | 285 kts | 303° |
| 2026-05-06 19:32 | -10.41158 | -74.25064 | 20001 ft | 285 kts | 303° |
| 2026-05-06 19:32 | -10.40057 | -74.26737 | 20000 ft | 285 kts | 303° |
| 2026-05-06 19:32 | -10.38951 | -74.28412 | 20000 ft | 285 kts | 303° |
| 2026-05-06 19:33 | -10.37847 | -74.30086 | 19997 ft | 285 kts | 303° |
| 2026-05-06 19:33 | -10.36742 | -74.31764 | 19997 ft | 285 kts | 303° |
| 2026-05-06 19:33 | -10.35637 | -74.33439 | 19997 ft | 286 kts | 303° |
| 2026-05-06 19:33 | -10.34530 | -74.35118 | 19997 ft | 286 kts | 303° |
| 2026-05-06 19:34 | -10.33423 | -74.36794 | 19997 ft | 286 kts | 303° |
| 2026-05-06 19:34 | -10.32317 | -74.38471 | 19998 ft | 286 kts | 303° |
| 2026-05-06 19:34 | -10.31210 | -74.40150 | 19997 ft | 286 kts | 303° |
| 2026-05-06 19:34 | -10.30101 | -74.41828 | 19997 ft | 286 kts | 303° |
| 2026-05-06 19:35 | -10.28995 | -74.43506 | 19997 ft | 286 kts | 303° |
| 2026-05-06 19:35 | -10.27885 | -74.45187 | 19996 ft | 286 kts | 303° |
| 2026-05-06 19:35 | -10.26775 | -74.46869 | 19996 ft | 286 kts | 303° |
| 2026-05-06 19:35 | -10.25665 | -74.48549 | 19996 ft | 287 kts | 303° |
| 2026-05-06 19:36 | -10.24555 | -74.50230 | 19982 ft | 287 kts | 303° |
| 2026-05-06 19:36 | -10.23456 | -74.51893 | 19983 ft | 287 kts | 303° |
| 2026-05-06 19:36 | -10.22344 | -74.53577 | 19983 ft | 287 kts | 303° |
| 2026-05-06 19:36 | -10.21230 | -74.55262 | 19983 ft | 288 kts | 303° |
| 2026-05-06 19:37 | -10.20115 | -74.56949 | 19981 ft | 288 kts | 303° |
| 2026-05-06 19:37 | -10.19001 | -74.58636 | 19983 ft | 288 kts | 303° |
| 2026-05-06 19:37 | -10.17885 | -74.60323 | 19983 ft | 288 kts | 303° |
| 2026-05-06 19:37 | -10.17145 | -74.61444 | 19982 ft | 288 kts | 303° |
| 2026-05-06 19:38 | -10.15650 | -74.63703 | 19983 ft | 288 kts | 303° |
| 2026-05-06 19:38 | -10.14536 | -74.65388 | 19967 ft | 287 kts | 303° |
| 2026-05-06 19:38 | -10.13422 | -74.67072 | 19967 ft | 287 kts | 303° |
| 2026-05-06 19:38 | -10.12308 | -74.68757 | 19967 ft | 287 kts | 303° |
| 2026-05-06 19:39 | -10.11194 | -74.70439 | 19965 ft | 287 kts | 303° |
| 2026-05-06 19:39 | -10.10082 | -74.72122 | 19965 ft | 287 kts | 303° |
| 2026-05-06 19:39 | -10.08966 | -74.73807 | 19965 ft | 287 kts | 303° |
| 2026-05-06 19:39 | -10.07853 | -74.75489 | 19964 ft | 287 kts | 303° |
| 2026-05-06 19:40 | -10.06755 | -74.77148 | 19964 ft | 287 kts | 303° |
| 2026-05-06 19:40 | -10.05640 | -74.78832 | 19956 ft | 287 kts | 303° |
| 2026-05-06 19:40 | -10.04528 | -74.80511 | 19956 ft | 287 kts | 303° |
| 2026-05-06 19:40 | -10.03416 | -74.82190 | 19955 ft | 287 kts | 303° |
| 2026-05-06 19:41 | -10.02304 | -74.83869 | 19955 ft | 286 kts | 303° |
| 2026-05-06 19:41 | -10.01192 | -74.85547 | 19955 ft | 287 kts | 303° |
| 2026-05-06 19:41 | -10.00082 | -74.87223 | 19954 ft | 287 kts | 303° |
| 2026-05-06 19:41 | -9.98969 | -74.88902 | 19954 ft | 287 kts | 303° |
| 2026-05-06 19:42 | -9.97857 | -74.90580 | 19954 ft | 287 kts | 303° |
| 2026-05-06 19:42 | -9.96745 | -74.92258 | 19954 ft | 287 kts | 303° |
| 2026-05-06 19:42 | -9.95631 | -74.93938 | 19954 ft | 287 kts | 303° |
| 2026-05-06 19:42 | -9.94518 | -74.95616 | 19954 ft | 287 kts | 303° |
| 2026-05-06 19:43 | -9.93405 | -74.97294 | 19951 ft | 287 kts | 303° |
| 2026-05-06 19:43 | -9.92291 | -74.98975 | 19953 ft | 287 kts | 303° |
| 2026-05-06 19:43 | -9.91179 | -75.00651 | 19953 ft | 287 kts | 303° |
| 2026-05-06 19:43 | -9.90066 | -75.02329 | 19953 ft | 286 kts | 303° |
| 2026-05-06 19:44 | -9.88954 | -75.04005 | 19954 ft | 287 kts | 303° |
| 2026-05-06 19:44 | -9.87840 | -75.05682 | 19958 ft | 286 kts | 303° |
| 2026-05-06 19:44 | -9.86730 | -75.07357 | 19949 ft | 286 kts | 303° |
| 2026-05-06 19:44 | -9.85616 | -75.09033 | 19952 ft | 287 kts | 303° |
| 2026-05-06 19:45 | -9.84502 | -75.10713 | 19955 ft | 287 kts | 303° |
| 2026-05-06 19:45 | -9.83387 | -75.12393 | 19956 ft | 287 kts | 303° |
| 2026-05-06 19:45 | -9.82269 | -75.14074 | 19954 ft | 288 kts | 303° |
| 2026-05-06 19:45 | -9.81152 | -75.15757 | 19954 ft | 288 kts | 303° |
| 2026-05-06 19:46 | -9.80035 | -75.17438 | 19933 ft | 288 kts | 303° |
| 2026-05-06 19:46 | -9.78889 | -75.19159 | 19594 ft | 298 kts | 303° |
| 2026-05-06 19:46 | -9.77721 | -75.20901 | 19305 ft | 301 kts | 303° |
| 2026-05-06 19:46 | -9.76564 | -75.22649 | 18981 ft | 304 kts | 303° |
| 2026-05-06 19:47 | -9.75385 | -75.24434 | 18654 ft | 305 kts | 303° |
| 2026-05-06 19:47 | -9.74196 | -75.26221 | 18328 ft | 306 kts | 303° |
| 2026-05-06 19:47 | -9.73004 | -75.28011 | 17957 ft | 306 kts | 303° |
| 2026-05-06 19:47 | -9.71815 | -75.29798 | 17578 ft | 305 kts | 303° |
| 2026-05-06 19:48 | -9.70632 | -75.31589 | 17197 ft | 304 kts | 301° |
| 2026-05-06 19:48 | -9.69557 | -75.33422 | 16828 ft | 302 kts | 299° |
| 2026-05-06 19:48 | -9.68478 | -75.35244 | 16463 ft | 301 kts | 300° |
| 2026-05-06 19:48 | -9.67394 | -75.37050 | 16134 ft | 299 kts | 300° |
| 2026-05-06 19:49 | -9.66324 | -75.38851 | 15772 ft | 297 kts | 300° |
| 2026-05-06 19:49 | -9.65262 | -75.40644 | 15420 ft | 296 kts | 300° |
| 2026-05-06 19:49 | -9.64204 | -75.42427 | 15073 ft | 294 kts | 300° |
| 2026-05-06 19:49 | -9.63149 | -75.44198 | 14719 ft | 293 kts | 300° |
| 2026-05-06 19:50 | -9.62098 | -75.45967 | 14376 ft | 292 kts | 300° |
| 2026-05-06 19:50 | -9.61050 | -75.47732 | 14037 ft | 291 kts | 300° |
| 2026-05-06 19:50 | -9.60007 | -75.49488 | 13689 ft | 290 kts | 300° |
| 2026-05-06 19:50 | -9.58981 | -75.51211 | 13349 ft | 288 kts | 300° |
| 2026-05-06 19:51 | -9.57950 | -75.52949 | 12975 ft | 287 kts | 300° |
| 2026-05-06 19:51 | -9.56924 | -75.54671 | 12604 ft | 284 kts | 300° |
| 2026-05-06 19:51 | -9.55905 | -75.56382 | 12236 ft | 282 kts | 300° |
| 2026-05-06 19:51 | -9.54894 | -75.58082 | 11876 ft | 281 kts | 300° |
| 2026-05-06 19:52 | -9.53890 | -75.59777 | 11519 ft | 280 kts | 300° |
| 2026-05-06 19:52 | -9.52878 | -75.61465 | 11164 ft | 280 kts | 300° |
| 2026-05-06 19:52 | -9.51876 | -75.63158 | 10813 ft | 281 kts | 300° |
| 2026-05-06 19:52 | -9.50871 | -75.64853 | 10492 ft | 279 kts | 300° |
| 2026-05-06 19:53 | -9.49862 | -75.66530 | 10150 ft | 278 kts | 300° |
| 2026-05-06 19:53 | -9.48869 | -75.68192 | 9786 ft | 275 kts | 300° |
| 2026-05-06 19:53 | -9.47857 | -75.69828 | 9413 ft | 273 kts | 301° |
| 2026-05-06 19:53 | -9.46850 | -75.71450 | 9033 ft | 270 kts | 301° |
| 2026-05-06 19:54 | -9.45863 | -75.73045 | 8669 ft | 265 kts | 301° |
| 2026-05-06 19:54 | -9.44894 | -75.74627 | 8303 ft | 263 kts | 301° |
| 2026-05-06 19:54 | -9.43936 | -75.76182 | 7933 ft | 256 kts | 302° |
| 2026-05-06 19:54 | -9.42879 | -75.77602 | 7569 ft | 249 kts | 309° |
| 2026-05-06 19:55 | -9.41595 | -75.78737 | 7248 ft | 244 kts | 330° |
| 2026-05-06 19:55 | -9.40004 | -75.79238 | 6895 ft | 240 kts | 355° |
| 2026-05-06 19:55 | -9.38350 | -75.79269 | 6525 ft | 236 kts | 0° |
| 2026-05-06 19:55 | -9.36783 | -75.79565 | 6159 ft | 233 kts | 336° |
| 2026-05-06 19:56 | -9.35345 | -75.80325 | 5832 ft | 230 kts | 329° |
| 2026-05-06 19:56 | -9.34097 | -75.81271 | 5710 ft | 222 kts | 320° |
| 2026-05-06 19:56 | -9.32967 | -75.82357 | 5378 ft | 224 kts | 319° |
| 2026-05-06 19:56 | -9.31723 | -75.83274 | 5143 ft | 218 kts | 329° |
| 2026-05-06 19:57 | -9.30450 | -75.84065 | 4965 ft | 212 kts | 328° |
| 2026-05-06 19:57 | -9.29237 | -75.84926 | 4703 ft | 213 kts | 326° |
| 2026-05-06 19:57 | -9.28439 | -75.85506 | 4536 ft | 213 kts | 321° |
| 2026-05-06 19:57 | -9.27361 | -75.86525 | 4297 ft | 212 kts | 317° |
| 2026-05-06 19:58 | -9.26235 | -75.87482 | 4171 ft | 213 kts | 322° |
| 2026-05-06 19:58 | -9.25097 | -75.88442 | 4225 ft | 213 kts | 320° |
| 2026-05-06 19:58 | -9.23881 | -75.89326 | 4198 ft | 218 kts | 329° |
| 2026-05-06 19:58 | -9.22588 | -75.90153 | 4125 ft | 221 kts | 327° |
| 2026-05-06 19:59 | -9.21351 | -75.91084 | 4086 ft | 225 kts | 320° |
| 2026-05-06 19:59 | -9.20115 | -75.92068 | 4020 ft | 226 kts | 332° |
| 2026-05-06 19:59 | -9.18655 | -75.92550 | 4087 ft | 219 kts | 353° |
| 2026-05-06 19:59 | -9.17164 | -75.92677 | 4142 ft | 201 kts | 356° |
| 2026-05-06 20:00 | -9.15905 | -75.92949 | 4051 ft | 180 kts | 331° |
| 2026-05-06 20:00 | -9.15260 | -75.94018 | 3720 ft | 191 kts | 276° |
| 2026-05-06 20:00 | -9.15416 | -75.95333 | 3560 ft | 183 kts | 258° |
| 2026-05-06 20:00 | -9.15713 | -75.96477 | 3470 ft | 155 kts | 247° |
| 2026-05-06 20:01 | -9.16274 | -75.97342 | 3232 ft | 140 kts | 227° |
| 2026-05-06 20:01 | -9.16990 | -75.97980 | 3083 ft | 142 kts | 217° |
| 2026-05-06 20:01 | -9.17869 | -75.98494 | 2970 ft | 144 kts | 204° |
| 2026-05-06 20:01 | -9.18833 | -75.98798 | 2818 ft | 147 kts | 194° |
| 2026-05-06 20:02 | -9.19803 | -75.99038 | 2739 ft | 141 kts | 194° |
| 2026-05-06 20:02 | -9.20747 | -75.99252 | 2824 ft | 142 kts | 192° |
| 2026-05-06 20:02 | -9.21711 | -75.99456 | 2852 ft | 138 kts | 194° |
| 2026-05-06 20:02 | -9.22645 | -75.99695 | 2925 ft | 138 kts | 196° |
| 2026-05-06 20:03 | -9.23597 | -75.99919 | 2881 ft | 142 kts | 192° |
| 2026-05-06 20:03 | -9.24477 | -76.00042 | 2697 ft | 111 kts | 186° |
| 2026-05-06 20:03 | -9.25220 | -76.00120 | 2571 ft | 112 kts | 187° |
| 2026-05-06 20:03 | -9.26009 | -76.00208 | 2530 ft | 115 kts | 185° |
| 2026-05-06 20:04 | -9.26803 | -76.00292 | 2439 ft | 114 kts | 183° |
| 2026-05-06 20:04 | -9.27561 | -76.00365 | 2305 ft | 105 kts | 185° |
| 2026-05-06 20:04 | -9.28254 | -76.00435 | 2147 ft | 95 kts | 183° |
| 2026-05-06 20:04 | -9.28864 | -76.00493 | 2108 ft | 70 kts | 185° |
| 2026-05-06 20:05 | -9.29214 | -76.00526 | 2114 ft | 35 kts | 185° |
| 2026-05-06 20:05 | -9.29441 | -76.00550 | 2113 ft | 23 kts | 185° |
| 2026-05-06 20:05 | -9.29547 | -76.00542 | 2114 ft | 10 kts | 158° |
| 2026-05-06 20:05 | -9.29592 | -76.00523 | 2117 ft | 9 kts | 160° |
| 2026-05-06 20:06 | -9.29641 | -76.00507 | 2120 ft | 6 kts | 174° |
| 2026-05-06 20:06 | -9.29666 | -76.00505 | 2120 ft | 0 kts | 172° |
| 2026-05-06 20:06 | -9.29701 | -76.00490 | 2123 ft | 7 kts | 188° |
| 2026-05-06 20:06 | -9.29706 | -76.00499 | 2122 ft | 0 kts | 277° |